ANZ261 YSSY-NZWN
Flight info
| Callsign | ANZ261 |
|---|---|
| Flight time | 3h 7m |
| Altitude | 39000 |
| Route | CAWLY M636 TANEN DCT SIMZI |
| Aircraft | A20N/M-SDE2E3FGHIRWXY/LB1 |
Departure
| Time | 2026-04-25 05:34 |
|---|---|
| Airport | Sydney Kingsford Smith International Airport (YSSY) |
Arrival
| Time | 2026-04-25 08:41 |
|---|---|
| Airport | Wellington International Airport (NZWN) |
| Time | Latitude | Longitude | Altitude | Speed | Heading |
|---|---|---|---|---|---|
| 2026-04-25 04:57 | -33.94006 | 151.16534 | 14 ft | 0 kts | 345° |
| 2026-04-25 05:23 | -33.94010 | 151.16536 | 30 ft | 3 kts | 345° |
| 2026-04-25 05:23 | -33.94036 | 151.16544 | 30 ft | 4 kts | 345° |
| 2026-04-25 05:23 | -33.94057 | 151.16551 | 30 ft | 4 kts | 346° |
| 2026-04-25 05:23 | -33.94084 | 151.16556 | 30 ft | 4 kts | 4° |
| 2026-04-25 05:24 | -33.94110 | 151.16549 | 30 ft | 4 kts | 27° |
| 2026-04-25 05:24 | -33.94131 | 151.16530 | 29 ft | 4 kts | 58° |
| 2026-04-25 05:24 | -33.94140 | 151.16502 | 29 ft | 4 kts | 74° |
| 2026-04-25 05:24 | -33.94143 | 151.16492 | 29 ft | 0 kts | 74° |
| 2026-04-25 05:26 | -33.94140 | 151.16503 | 29 ft | 4 kts | 74° |
| 2026-04-25 05:27 | -33.94125 | 151.16565 | 29 ft | 11 kts | 75° |
| 2026-04-25 05:27 | -33.94098 | 151.16684 | 30 ft | 17 kts | 73° |
| 2026-04-25 05:27 | -33.94066 | 151.16831 | 30 ft | 19 kts | 76° |
| 2026-04-25 05:27 | -33.94028 | 151.16980 | 29 ft | 19 kts | 76° |
| 2026-04-25 05:28 | -33.93996 | 151.17117 | 29 ft | 13 kts | 75° |
| 2026-04-25 05:28 | -33.93990 | 151.17143 | 29 ft | 1 kts | 75° |
| 2026-04-25 05:28 | -33.93989 | 151.17149 | 29 ft | 2 kts | 75° |
| 2026-04-25 05:28 | -33.93983 | 151.17171 | 29 ft | 5 kts | 74° |
| 2026-04-25 05:29 | -33.93949 | 151.17214 | 29 ft | 10 kts | 16° |
| 2026-04-25 05:29 | -33.93855 | 151.17195 | 28 ft | 17 kts | 347° |
| 2026-04-25 05:29 | -33.93719 | 151.17160 | 29 ft | 22 kts | 347° |
| 2026-04-25 05:29 | -33.93563 | 151.17119 | 29 ft | 23 kts | 348° |
| 2026-04-25 05:30 | -33.93424 | 151.17083 | 29 ft | 21 kts | 347° |
| 2026-04-25 05:30 | -33.93297 | 151.17011 | 29 ft | 21 kts | 311° |
| 2026-04-25 05:30 | -33.93171 | 151.16942 | 29 ft | 21 kts | 348° |
| 2026-04-25 05:30 | -33.93082 | 151.16918 | 30 ft | 12 kts | 346° |
| 2026-04-25 05:31 | -33.92997 | 151.16930 | 30 ft | 13 kts | 40° |
| 2026-04-25 05:31 | -33.92969 | 151.17034 | 30 ft | 14 kts | 78° |
| 2026-04-25 05:31 | -33.92976 | 151.17148 | 30 ft | 14 kts | 126° |
| 2026-04-25 05:31 | -33.93049 | 151.17188 | 30 ft | 2 kts | 168° |
| 2026-04-25 05:32 | -33.93053 | 151.17189 | 30 ft | 0 kts | 168° |
| 2026-04-25 05:33 | -33.93098 | 151.17202 | 30 ft | 31 kts | 166° |
| 2026-04-25 05:33 | -33.93545 | 151.17320 | 26 ft | 99 kts | 168° |
| 2026-04-25 05:33 | -33.94389 | 151.17540 | 29 ft | 150 kts | 167° |
| 2026-04-25 05:34 | -33.95529 | 151.17820 | 259 ft | 171 kts | 167° |
| 2026-04-25 05:34 | -33.96681 | 151.17894 | 979 ft | 162 kts | 182° |
| 2026-04-25 05:34 | -33.97750 | 151.17650 | 1736 ft | 150 kts | 192° |
| 2026-04-25 05:34 | -33.98743 | 151.17383 | 2350 ft | 144 kts | 185° |
| 2026-04-25 05:35 | -33.99736 | 151.17298 | 2901 ft | 143 kts | 176° |
| 2026-04-25 05:35 | -34.00731 | 151.17408 | 3470 ft | 144 kts | 168° |
| 2026-04-25 05:35 | -34.01703 | 151.17703 | 3969 ft | 147 kts | 159° |
| 2026-04-25 05:35 | -34.02645 | 151.18188 | 4517 ft | 147 kts | 149° |
| 2026-04-25 05:36 | -34.03519 | 151.18848 | 5090 ft | 148 kts | 140° |
| 2026-04-25 05:36 | -34.04292 | 151.19653 | 5650 ft | 146 kts | 131° |
| 2026-04-25 05:36 | -34.04935 | 151.20615 | 6124 ft | 152 kts | 115° |
| 2026-04-25 05:36 | -34.05180 | 151.21898 | 6483 ft | 166 kts | 91° |
| 2026-04-25 05:37 | -34.05251 | 151.23345 | 6886 ft | 184 kts | 95° |
| 2026-04-25 05:37 | -34.05497 | 151.24940 | 7261 ft | 204 kts | 104° |
| 2026-04-25 05:37 | -34.05967 | 151.26640 | 7610 ft | 224 kts | 110° |
| 2026-04-25 05:37 | -34.06609 | 151.28449 | 7927 ft | 246 kts | 114° |
| 2026-04-25 05:38 | -34.07365 | 151.30390 | 8319 ft | 266 kts | 115° |
| 2026-04-25 05:38 | -34.08185 | 151.32456 | 8949 ft | 277 kts | 115° |
| 2026-04-25 05:38 | -34.09020 | 151.34564 | 9814 ft | 279 kts | 115° |
| 2026-04-25 05:38 | -34.09864 | 151.36712 | 10506 ft | 290 kts | 115° |
| 2026-04-25 05:39 | -34.10744 | 151.38966 | 10820 ft | 311 kts | 115° |
| 2026-04-25 05:39 | -34.11697 | 151.41419 | 11119 ft | 331 kts | 115° |
| 2026-04-25 05:39 | -34.12681 | 151.43960 | 11818 ft | 336 kts | 115° |
| 2026-04-25 05:39 | -34.13674 | 151.46526 | 12586 ft | 339 kts | 115° |
| 2026-04-25 05:40 | -34.14679 | 151.49121 | 13340 ft | 343 kts | 115° |
| 2026-04-25 05:40 | -34.15682 | 151.51714 | 14067 ft | 347 kts | 115° |
| 2026-04-25 05:40 | -34.16710 | 151.54372 | 14736 ft | 351 kts | 115° |
| 2026-04-25 05:40 | -34.17746 | 151.57052 | 15422 ft | 353 kts | 115° |
| 2026-04-25 05:41 | -34.18791 | 151.59755 | 16093 ft | 356 kts | 115° |
| 2026-04-25 05:41 | -34.19842 | 151.62478 | 16738 ft | 360 kts | 115° |
| 2026-04-25 05:41 | -34.20906 | 151.65236 | 17390 ft | 363 kts | 115° |
| 2026-04-25 05:41 | -34.21978 | 151.68018 | 18050 ft | 366 kts | 115° |
| 2026-04-25 05:42 | -34.23043 | 151.70785 | 18672 ft | 369 kts | 115° |
| 2026-04-25 05:42 | -34.24129 | 151.73608 | 19237 ft | 372 kts | 115° |
| 2026-04-25 05:42 | -34.25222 | 151.76453 | 19813 ft | 374 kts | 115° |
| 2026-04-25 05:42 | -34.26321 | 151.79316 | 20375 ft | 377 kts | 115° |
| 2026-04-25 05:43 | -34.27427 | 151.82201 | 20937 ft | 379 kts | 115° |
| 2026-04-25 05:43 | -34.28542 | 151.85109 | 21494 ft | 382 kts | 115° |
| 2026-04-25 05:43 | -34.29660 | 151.88030 | 22036 ft | 384 kts | 115° |
| 2026-04-25 05:43 | -34.30691 | 151.90981 | 22563 ft | 387 kts | 107° |
| 2026-04-25 05:44 | -34.31106 | 151.94212 | 23099 ft | 391 kts | 94° |
| 2026-04-25 05:44 | -34.31214 | 151.97506 | 23611 ft | 394 kts | 93° |
| 2026-04-25 05:44 | -34.31309 | 152.00826 | 24109 ft | 397 kts | 93° |
| 2026-04-25 05:44 | -34.31403 | 152.04180 | 24539 ft | 399 kts | 93° |
| 2026-04-25 05:45 | -34.31494 | 152.07545 | 24961 ft | 402 kts | 93° |
| 2026-04-25 05:45 | -34.31585 | 152.10943 | 25376 ft | 404 kts | 93° |
| 2026-04-25 05:45 | -34.31672 | 152.14305 | 25775 ft | 407 kts | 93° |
| 2026-04-25 05:45 | -34.31759 | 152.17737 | 26166 ft | 410 kts | 93° |
| 2026-04-25 05:46 | -34.31845 | 152.21197 | 26562 ft | 412 kts | 93° |
| 2026-04-25 05:46 | -34.31929 | 152.24672 | 26957 ft | 414 kts | 93° |
| 2026-04-25 05:46 | -34.32012 | 152.28162 | 27331 ft | 417 kts | 93° |
| 2026-04-25 05:46 | -34.32093 | 152.31678 | 27691 ft | 419 kts | 93° |
| 2026-04-25 05:47 | -34.32175 | 152.35219 | 28045 ft | 422 kts | 93° |
| 2026-04-25 05:47 | -34.32255 | 152.38782 | 28398 ft | 424 kts | 93° |
| 2026-04-25 05:47 | -34.32333 | 152.42306 | 28743 ft | 426 kts | 93° |
| 2026-04-25 05:47 | -34.32411 | 152.45902 | 29048 ft | 429 kts | 93° |
| 2026-04-25 05:48 | -34.32490 | 152.49517 | 29372 ft | 431 kts | 93° |
| 2026-04-25 05:48 | -34.32569 | 152.53149 | 29692 ft | 433 kts | 93° |
| 2026-04-25 05:48 | -34.32647 | 152.56809 | 29986 ft | 435 kts | 93° |
| 2026-04-25 05:48 | -34.32724 | 152.60433 | 30287 ft | 437 kts | 93° |
| 2026-04-25 05:49 | -34.32800 | 152.64112 | 30570 ft | 439 kts | 93° |
| 2026-04-25 05:49 | -34.32877 | 152.67817 | 30829 ft | 441 kts | 93° |
| 2026-04-25 05:49 | -34.32953 | 152.71528 | 31100 ft | 443 kts | 94° |
| 2026-04-25 05:49 | -34.33025 | 152.75269 | 31355 ft | 444 kts | 94° |
| 2026-04-25 05:50 | -34.33093 | 152.79006 | 31659 ft | 445 kts | 94° |
| 2026-04-25 05:50 | -34.33159 | 152.82755 | 32008 ft | 444 kts | 94° |
| 2026-04-25 05:50 | -34.33219 | 152.86435 | 32352 ft | 444 kts | 94° |
| 2026-04-25 05:50 | -34.33275 | 152.90176 | 32689 ft | 443 kts | 94° |
| 2026-04-25 05:51 | -34.33325 | 152.93902 | 33032 ft | 442 kts | 94° |
| 2026-04-25 05:51 | -34.33371 | 152.97620 | 33363 ft | 441 kts | 94° |
| 2026-04-25 05:51 | -34.33413 | 153.01340 | 33673 ft | 441 kts | 94° |
| 2026-04-25 05:51 | -34.33450 | 153.05000 | 33978 ft | 440 kts | 94° |
| 2026-04-25 05:52 | -34.33635 | 153.08690 | 34271 ft | 436 kts | 103° |
| 2026-04-25 05:52 | -34.34432 | 153.12201 | 34523 ft | 430 kts | 115° |
| 2026-04-25 05:52 | -34.35833 | 153.15365 | 34752 ft | 426 kts | 127° |
| 2026-04-25 05:52 | -34.37775 | 153.18054 | 34960 ft | 423 kts | 139° |
| 2026-04-25 05:53 | -34.40155 | 153.20132 | 35165 ft | 422 kts | 152° |
| 2026-04-25 05:53 | -34.42822 | 153.21487 | 35362 ft | 422 kts | 163° |
| 2026-04-25 05:53 | -34.45716 | 153.22088 | 35539 ft | 424 kts | 176° |
| 2026-04-25 05:53 | -34.48667 | 153.21877 | 35720 ft | 427 kts | 188° |
| 2026-04-25 05:54 | -34.51523 | 153.20859 | 35882 ft | 431 kts | 201° |
| 2026-04-25 05:54 | -34.54156 | 153.19069 | 36052 ft | 436 kts | 212° |
| 2026-04-25 05:54 | -34.59021 | 153.14650 | 36422 ft | 437 kts | 214° |
| 2026-04-25 05:55 | -34.61446 | 153.12424 | 36602 ft | 436 kts | 214° |
| 2026-04-25 05:55 | -34.63832 | 153.10233 | 36774 ft | 436 kts | 214° |
| 2026-04-25 05:55 | -34.66259 | 153.08007 | 36948 ft | 436 kts | 214° |
| 2026-04-25 05:55 | -34.68679 | 153.05788 | 37122 ft | 436 kts | 214° |
| 2026-04-25 05:56 | -34.71105 | 153.03566 | 37288 ft | 435 kts | 214° |
| 2026-04-25 05:56 | -34.73518 | 153.01355 | 37456 ft | 435 kts | 214° |
| 2026-04-25 05:56 | -34.76049 | 152.99361 | 37599 ft | 431 kts | 203° |
| 2026-04-25 05:56 | -34.78804 | 152.98111 | 37711 ft | 426 kts | 190° |
| 2026-04-25 05:57 | -34.81724 | 152.97648 | 37815 ft | 423 kts | 178° |
| 2026-04-25 05:57 | -34.84641 | 152.98008 | 37911 ft | 421 kts | 165° |
| 2026-04-25 05:57 | -34.87405 | 152.99178 | 38010 ft | 420 kts | 153° |
| 2026-04-25 05:57 | -34.89858 | 153.01087 | 38108 ft | 421 kts | 140° |
| 2026-04-25 05:58 | -34.91893 | 153.03654 | 38210 ft | 422 kts | 127° |
| 2026-04-25 05:58 | -34.93387 | 153.06736 | 38309 ft | 425 kts | 114° |
| 2026-04-25 05:58 | -34.94264 | 153.10174 | 38405 ft | 428 kts | 102° |
| 2026-04-25 05:58 | -34.94778 | 153.13700 | 38524 ft | 428 kts | 104° |
| 2026-04-25 05:59 | -34.95513 | 153.17207 | 38670 ft | 425 kts | 110° |
| 2026-04-25 05:59 | -34.96552 | 153.20570 | 38807 ft | 423 kts | 115° |
| 2026-04-25 05:59 | -34.97796 | 153.23808 | 38932 ft | 422 kts | 118° |
| 2026-04-25 05:59 | -34.99146 | 153.26983 | 39056 ft | 421 kts | 120° |
| 2026-04-25 06:00 | -35.01937 | 153.33262 | 39218 ft | 421 kts | 120° |
| 2026-04-25 06:00 | -35.04715 | 153.39509 | 39351 ft | 422 kts | 120° |
| 2026-04-25 06:01 | -35.07500 | 153.45815 | 39407 ft | 421 kts | 120° |
| 2026-04-25 06:01 | -35.10258 | 153.52078 | 39411 ft | 421 kts | 120° |
| 2026-04-25 06:02 | -35.13026 | 153.58380 | 39414 ft | 421 kts | 120° |
| 2026-04-25 06:02 | -35.15794 | 153.64690 | 39413 ft | 421 kts | 120° |
| 2026-04-25 06:03 | -35.18552 | 153.70991 | 39417 ft | 420 kts | 120° |
| 2026-04-25 06:03 | -35.21306 | 153.77295 | 39413 ft | 420 kts | 120° |
| 2026-04-25 06:04 | -35.24039 | 153.83560 | 39418 ft | 420 kts | 119° |
| 2026-04-25 06:04 | -35.26784 | 153.89866 | 39413 ft | 420 kts | 119° |
| 2026-04-25 06:05 | -35.29525 | 153.96176 | 39419 ft | 420 kts | 119° |
| 2026-04-25 06:05 | -35.32264 | 154.02491 | 39418 ft | 420 kts | 119° |
| 2026-04-25 06:06 | -35.34979 | 154.08763 | 39418 ft | 419 kts | 119° |
| 2026-04-25 06:06 | -35.37710 | 154.15085 | 39418 ft | 419 kts | 119° |
| 2026-04-25 06:07 | -35.40437 | 154.21410 | 39422 ft | 419 kts | 119° |
| 2026-04-25 06:07 | -35.43159 | 154.27735 | 39424 ft | 419 kts | 119° |
| 2026-04-25 06:08 | -35.45860 | 154.34021 | 39428 ft | 419 kts | 119° |
| 2026-04-25 06:08 | -35.48575 | 154.40355 | 39425 ft | 419 kts | 119° |
| 2026-04-25 06:09 | -35.51289 | 154.46696 | 39431 ft | 419 kts | 119° |
| 2026-04-25 06:09 | -35.53994 | 154.53029 | 39435 ft | 419 kts | 119° |
| 2026-04-25 06:10 | -35.56697 | 154.59370 | 39434 ft | 419 kts | 119° |
| 2026-04-25 06:10 | -35.59383 | 154.65680 | 39430 ft | 419 kts | 119° |
| 2026-04-25 06:11 | -35.62062 | 154.72043 | 39433 ft | 419 kts | 118° |
| 2026-04-25 06:11 | -35.64652 | 154.78462 | 39436 ft | 419 kts | 118° |
| 2026-04-25 06:12 | -35.67228 | 154.84836 | 39440 ft | 419 kts | 118° |
| 2026-04-25 06:12 | -35.69827 | 154.91244 | 39434 ft | 418 kts | 118° |
| 2026-04-25 06:13 | -35.72421 | 154.97652 | 39435 ft | 418 kts | 118° |
| 2026-04-25 06:14 | -35.76286 | 155.07229 | 39433 ft | 418 kts | 118° |
| 2026-04-25 06:14 | -35.78874 | 155.13656 | 39432 ft | 418 kts | 117° |
| 2026-04-25 06:15 | -35.81457 | 155.20084 | 39432 ft | 418 kts | 117° |
| 2026-04-25 06:15 | -35.84018 | 155.26471 | 39431 ft | 418 kts | 117° |
| 2026-04-25 06:16 | -35.86593 | 155.32906 | 39431 ft | 418 kts | 117° |
| 2026-04-25 06:16 | -35.89147 | 155.39301 | 39441 ft | 418 kts | 117° |
| 2026-04-25 06:17 | -35.91713 | 155.45737 | 39437 ft | 418 kts | 117° |
| 2026-04-25 06:17 | -35.94276 | 155.52180 | 39436 ft | 418 kts | 117° |
| 2026-04-25 06:18 | -35.96822 | 155.58593 | 39438 ft | 418 kts | 117° |
| 2026-04-25 06:18 | -35.99378 | 155.65044 | 39438 ft | 418 kts | 117° |
| 2026-04-25 06:19 | -36.01934 | 155.71507 | 39442 ft | 418 kts | 117° |
| 2026-04-25 06:19 | -36.04483 | 155.77965 | 39445 ft | 418 kts | 117° |
| 2026-04-25 06:20 | -36.07011 | 155.84383 | 39441 ft | 418 kts | 117° |
| 2026-04-25 06:20 | -36.09554 | 155.90854 | 39444 ft | 418 kts | 117° |
| 2026-04-25 06:21 | -36.12095 | 155.97332 | 39444 ft | 418 kts | 117° |
| 2026-04-25 06:21 | -36.14629 | 156.03802 | 39447 ft | 418 kts | 117° |
| 2026-04-25 06:22 | -36.17144 | 156.10240 | 39442 ft | 418 kts | 117° |
| 2026-04-25 06:22 | -36.19673 | 156.16726 | 39445 ft | 418 kts | 117° |
| 2026-04-25 06:23 | -36.22197 | 156.23212 | 39445 ft | 418 kts | 117° |
| 2026-04-25 06:23 | -36.24699 | 156.29655 | 39440 ft | 418 kts | 117° |
| 2026-04-25 06:24 | -36.27215 | 156.36146 | 39445 ft | 418 kts | 117° |
| 2026-04-25 06:24 | -36.29728 | 156.42646 | 39446 ft | 418 kts | 117° |
| 2026-04-25 06:25 | -36.32236 | 156.49141 | 39446 ft | 418 kts | 117° |
| 2026-04-25 06:25 | -36.34721 | 156.55594 | 39448 ft | 418 kts | 117° |
| 2026-04-25 06:26 | -36.37223 | 156.62103 | 39452 ft | 418 kts | 116° |
| 2026-04-25 06:26 | -36.39725 | 156.68625 | 39448 ft | 418 kts | 116° |
| 2026-04-25 06:27 | -36.42203 | 156.75096 | 39451 ft | 418 kts | 116° |
| 2026-04-25 06:27 | -36.44694 | 156.81618 | 39447 ft | 418 kts | 116° |
| 2026-04-25 06:28 | -36.47182 | 156.88143 | 39453 ft | 418 kts | 116° |
| 2026-04-25 06:28 | -36.49664 | 156.94668 | 39453 ft | 418 kts | 116° |
| 2026-04-25 06:29 | -36.52149 | 157.01211 | 39452 ft | 418 kts | 116° |
| 2026-04-25 06:29 | -36.54607 | 157.07699 | 39452 ft | 418 kts | 116° |
| 2026-04-25 06:30 | -36.57083 | 157.14249 | 39451 ft | 418 kts | 116° |
| 2026-04-25 06:30 | -36.59558 | 157.20807 | 39451 ft | 418 kts | 116° |
| 2026-04-25 06:31 | -36.62012 | 157.27325 | 39452 ft | 418 kts | 116° |
| 2026-04-25 06:31 | -36.64479 | 157.33891 | 39454 ft | 418 kts | 116° |
| 2026-04-25 06:32 | -36.66942 | 157.40461 | 39453 ft | 419 kts | 116° |
| 2026-04-25 06:32 | -36.69403 | 157.47036 | 39456 ft | 419 kts | 116° |
| 2026-04-25 06:33 | -36.71860 | 157.53619 | 39457 ft | 419 kts | 116° |
| 2026-04-25 06:33 | -36.74296 | 157.60157 | 39456 ft | 419 kts | 116° |
| 2026-04-25 06:34 | -36.76751 | 157.66760 | 39460 ft | 419 kts | 116° |
| 2026-04-25 06:34 | -36.79204 | 157.73370 | 39460 ft | 419 kts | 116° |
| 2026-04-25 06:35 | -36.81630 | 157.79926 | 39459 ft | 419 kts | 116° |
| 2026-04-25 06:35 | -36.84071 | 157.86532 | 39455 ft | 419 kts | 116° |
| 2026-04-25 06:36 | -36.86511 | 157.93151 | 39455 ft | 419 kts | 115° |
| 2026-04-25 06:36 | -36.88947 | 157.99771 | 39461 ft | 419 kts | 115° |
| 2026-04-25 06:37 | -36.91357 | 158.06339 | 39460 ft | 419 kts | 115° |
| 2026-04-25 06:37 | -36.93786 | 158.12970 | 39460 ft | 419 kts | 115° |
| 2026-04-25 06:38 | -36.96209 | 158.19598 | 39456 ft | 419 kts | 115° |
| 2026-04-25 06:38 | -36.98626 | 158.26227 | 39457 ft | 419 kts | 115° |
| 2026-04-25 06:39 | -37.01042 | 158.32865 | 39459 ft | 419 kts | 115° |
| 2026-04-25 06:39 | -37.03456 | 158.39510 | 39461 ft | 419 kts | 115° |
| 2026-04-25 06:40 | -37.05870 | 158.46160 | 39462 ft | 420 kts | 115° |
| 2026-04-25 06:40 | -37.08265 | 158.52781 | 39462 ft | 420 kts | 115° |
| 2026-04-25 06:41 | -37.10655 | 158.59449 | 39463 ft | 420 kts | 115° |
| 2026-04-25 06:41 | -37.13054 | 158.66121 | 39461 ft | 420 kts | 115° |
| 2026-04-25 06:42 | -37.15455 | 158.72799 | 39462 ft | 420 kts | 115° |
| 2026-04-25 06:42 | -37.17451 | 158.78359 | 39461 ft | 420 kts | 115° |
| 2026-04-25 06:43 | -37.20232 | 158.86134 | 39462 ft | 420 kts | 115° |
| 2026-04-25 06:43 | -37.22222 | 158.91713 | 39465 ft | 421 kts | 115° |
| 2026-04-25 06:44 | -37.24998 | 158.99513 | 39469 ft | 421 kts | 115° |
| 2026-04-25 06:44 | -37.26980 | 159.05093 | 39469 ft | 421 kts | 115° |
| 2026-04-25 06:45 | -37.29359 | 159.11805 | 39463 ft | 421 kts | 115° |
| 2026-04-25 06:45 | -37.31743 | 159.18545 | 39464 ft | 421 kts | 115° |
| 2026-04-25 06:46 | -37.34103 | 159.25233 | 39464 ft | 421 kts | 115° |
| 2026-04-25 06:46 | -37.36473 | 159.31966 | 39469 ft | 421 kts | 114° |
| 2026-04-25 06:47 | -37.38844 | 159.38714 | 39465 ft | 421 kts | 114° |
| 2026-04-25 06:47 | -37.41199 | 159.45434 | 39465 ft | 421 kts | 114° |
| 2026-04-25 06:48 | -37.43560 | 159.52185 | 39468 ft | 422 kts | 114° |
| 2026-04-25 06:48 | -37.45916 | 159.58938 | 39467 ft | 422 kts | 114° |
| 2026-04-25 06:49 | -37.48259 | 159.65668 | 39464 ft | 422 kts | 114° |
| 2026-04-25 06:49 | -37.50616 | 159.72452 | 39467 ft | 422 kts | 114° |
| 2026-04-25 06:50 | -37.52966 | 159.79234 | 39463 ft | 422 kts | 114° |
| 2026-04-25 06:50 | -37.55293 | 159.85966 | 39468 ft | 422 kts | 114° |
| 2026-04-25 06:51 | -37.57635 | 159.92754 | 39464 ft | 422 kts | 114° |
| 2026-04-25 06:51 | -37.59975 | 159.99553 | 39465 ft | 422 kts | 114° |
| 2026-04-25 06:52 | -37.62261 | 160.06209 | 39472 ft | 422 kts | 114° |
| 2026-04-25 06:52 | -37.64595 | 160.13021 | 39465 ft | 422 kts | 114° |
| 2026-04-25 06:53 | -37.66926 | 160.19841 | 39463 ft | 422 kts | 114° |
| 2026-04-25 06:53 | -37.69236 | 160.26614 | 39463 ft | 423 kts | 114° |
| 2026-04-25 06:54 | -37.71556 | 160.33432 | 39463 ft | 423 kts | 114° |
| 2026-04-25 06:54 | -37.73879 | 160.40276 | 39464 ft | 423 kts | 114° |
| 2026-04-25 06:55 | -37.76181 | 160.47072 | 39466 ft | 423 kts | 114° |
| 2026-04-25 06:55 | -37.78491 | 160.53911 | 39469 ft | 423 kts | 114° |
| 2026-04-25 06:56 | -37.80798 | 160.60754 | 39463 ft | 423 kts | 114° |
| 2026-04-25 06:56 | -37.83103 | 160.67608 | 39463 ft | 423 kts | 113° |
| 2026-04-25 06:57 | -37.85387 | 160.74415 | 39460 ft | 423 kts | 113° |
| 2026-04-25 06:57 | -37.87683 | 160.81274 | 39465 ft | 423 kts | 113° |
| 2026-04-25 06:58 | -37.89976 | 160.88141 | 39462 ft | 423 kts | 113° |
| 2026-04-25 06:58 | -37.92268 | 160.95020 | 39460 ft | 424 kts | 113° |
| 2026-04-25 06:59 | -37.94541 | 161.01857 | 39461 ft | 424 kts | 113° |
| 2026-04-25 06:59 | -37.96823 | 161.08741 | 39464 ft | 424 kts | 113° |
| 2026-04-25 07:00 | -37.99105 | 161.15637 | 39460 ft | 424 kts | 113° |
| 2026-04-25 07:00 | -38.01382 | 161.22539 | 39460 ft | 424 kts | 113° |
| 2026-04-25 07:01 | -38.03658 | 161.29451 | 39459 ft | 424 kts | 113° |
| 2026-04-25 07:01 | -38.05917 | 161.36328 | 39461 ft | 425 kts | 113° |
| 2026-04-25 07:02 | -38.08185 | 161.43250 | 39459 ft | 425 kts | 113° |
| 2026-04-25 07:02 | -38.10451 | 161.50184 | 39458 ft | 425 kts | 113° |
| 2026-04-25 07:03 | -38.12698 | 161.57076 | 39461 ft | 425 kts | 113° |
| 2026-04-25 07:03 | -38.14958 | 161.64023 | 39465 ft | 425 kts | 113° |
| 2026-04-25 07:04 | -38.17201 | 161.70936 | 39461 ft | 425 kts | 113° |
| 2026-04-25 07:04 | -38.19453 | 161.77894 | 39456 ft | 425 kts | 112° |
| 2026-04-25 07:05 | -38.21701 | 161.84854 | 39458 ft | 425 kts | 112° |
| 2026-04-25 07:05 | -38.23929 | 161.91772 | 39455 ft | 425 kts | 112° |
| 2026-04-25 07:06 | -38.26168 | 161.98738 | 39454 ft | 425 kts | 112° |
| 2026-04-25 07:06 | -38.28403 | 162.05712 | 39457 ft | 425 kts | 112° |
| 2026-04-25 07:07 | -38.30639 | 162.12704 | 39455 ft | 426 kts | 112° |
| 2026-04-25 07:07 | -38.32854 | 162.19649 | 39453 ft | 426 kts | 112° |
| 2026-04-25 07:08 | -38.35082 | 162.26651 | 39452 ft | 426 kts | 112° |
| 2026-04-25 07:08 | -38.37305 | 162.33653 | 39454 ft | 426 kts | 112° |
| 2026-04-25 07:09 | -38.39511 | 162.40621 | 39453 ft | 426 kts | 112° |
| 2026-04-25 07:09 | -38.41730 | 162.47649 | 39450 ft | 427 kts | 112° |
| 2026-04-25 07:10 | -38.43931 | 162.54632 | 39449 ft | 427 kts | 112° |
| 2026-04-25 07:10 | -38.46145 | 162.61678 | 39448 ft | 427 kts | 112° |
| 2026-04-25 07:11 | -38.48351 | 162.68719 | 39452 ft | 427 kts | 112° |
| 2026-04-25 07:11 | -38.50544 | 162.75732 | 39449 ft | 428 kts | 112° |
| 2026-04-25 07:12 | -38.52749 | 162.82798 | 39454 ft | 428 kts | 112° |
| 2026-04-25 07:12 | -38.56043 | 162.93377 | 39452 ft | 429 kts | 112° |
| 2026-04-25 07:13 | -38.58229 | 163.00468 | 39449 ft | 429 kts | 110° |
| 2026-04-25 07:13 | -38.60286 | 163.07633 | 39446 ft | 429 kts | 111° |
| 2026-04-25 07:14 | -38.62390 | 163.14722 | 39450 ft | 429 kts | 111° |
| 2026-04-25 07:14 | -38.64501 | 163.21875 | 39444 ft | 430 kts | 111° |
| 2026-04-25 07:15 | -38.66600 | 163.29036 | 39445 ft | 430 kts | 111° |
| 2026-04-25 07:15 | -38.68695 | 163.36208 | 39445 ft | 430 kts | 111° |
| 2026-04-25 07:16 | -38.70768 | 163.43328 | 39447 ft | 430 kts | 111° |
| 2026-04-25 07:16 | -38.72851 | 163.50509 | 39447 ft | 430 kts | 111° |
| 2026-04-25 07:17 | -38.74930 | 163.57698 | 39446 ft | 430 kts | 111° |
| 2026-04-25 07:17 | -38.76991 | 163.64847 | 39442 ft | 430 kts | 111° |
| 2026-04-25 07:18 | -38.79061 | 163.72043 | 39439 ft | 430 kts | 111° |
| 2026-04-25 07:18 | -38.81128 | 163.79251 | 39438 ft | 430 kts | 110° |
| 2026-04-25 07:19 | -38.83189 | 163.86458 | 39438 ft | 430 kts | 110° |
| 2026-04-25 07:19 | -38.85231 | 163.93615 | 39435 ft | 430 kts | 110° |
| 2026-04-25 07:20 | -38.87281 | 164.00821 | 39430 ft | 430 kts | 110° |
| 2026-04-25 07:20 | -38.89331 | 164.08047 | 39431 ft | 432 kts | 110° |
| 2026-04-25 07:21 | -38.91383 | 164.15302 | 39426 ft | 438 kts | 110° |
| 2026-04-25 07:21 | -38.93470 | 164.22699 | 39428 ft | 442 kts | 110° |
| 2026-04-25 07:22 | -38.95557 | 164.30121 | 39427 ft | 442 kts | 110° |
| 2026-04-25 07:22 | -38.97641 | 164.37552 | 39427 ft | 442 kts | 110° |
| 2026-04-25 07:23 | -38.99721 | 164.44988 | 39428 ft | 442 kts | 110° |
| 2026-04-25 07:23 | -39.01785 | 164.52389 | 39426 ft | 442 kts | 110° |
| 2026-04-25 07:24 | -39.03857 | 164.59838 | 39426 ft | 442 kts | 110° |
| 2026-04-25 07:24 | -39.05922 | 164.67284 | 39425 ft | 442 kts | 110° |
| 2026-04-25 07:25 | -39.07972 | 164.74697 | 39422 ft | 442 kts | 110° |
| 2026-04-25 07:25 | -39.10031 | 164.82165 | 39419 ft | 442 kts | 110° |
| 2026-04-25 07:26 | -39.12073 | 164.89593 | 39422 ft | 442 kts | 110° |
| 2026-04-25 07:26 | -39.14121 | 164.97063 | 39422 ft | 442 kts | 110° |
| 2026-04-25 07:27 | -39.16165 | 165.04541 | 39418 ft | 442 kts | 110° |
| 2026-04-25 07:27 | -39.18191 | 165.11973 | 39419 ft | 442 kts | 110° |
| 2026-04-25 07:28 | -39.20222 | 165.19451 | 39415 ft | 442 kts | 110° |
| 2026-04-25 07:28 | -39.22251 | 165.26939 | 39418 ft | 442 kts | 110° |
| 2026-04-25 07:29 | -39.24265 | 165.34397 | 39414 ft | 442 kts | 110° |
| 2026-04-25 07:29 | -39.26288 | 165.41901 | 39412 ft | 442 kts | 110° |
| 2026-04-25 07:30 | -39.28305 | 165.49411 | 39411 ft | 443 kts | 110° |
| 2026-04-25 07:30 | -39.30303 | 165.56874 | 39412 ft | 443 kts | 110° |
| 2026-04-25 07:31 | -39.32310 | 165.64391 | 39410 ft | 443 kts | 110° |
| 2026-04-25 07:31 | -39.34313 | 165.71921 | 39406 ft | 443 kts | 110° |
| 2026-04-25 07:32 | -39.36314 | 165.79460 | 39407 ft | 444 kts | 110° |
| 2026-04-25 07:32 | -39.38298 | 165.86961 | 39410 ft | 444 kts | 110° |
| 2026-04-25 07:33 | -39.40292 | 165.94515 | 39411 ft | 444 kts | 110° |
| 2026-04-25 07:33 | -39.42281 | 166.02078 | 39405 ft | 444 kts | 110° |
| 2026-04-25 07:34 | -39.44267 | 166.09656 | 39402 ft | 445 kts | 109° |
| 2026-04-25 07:34 | -39.46248 | 166.17236 | 39407 ft | 445 kts | 109° |
| 2026-04-25 07:35 | -39.48227 | 166.24825 | 39405 ft | 445 kts | 109° |
| 2026-04-25 07:35 | -39.50190 | 166.32382 | 39405 ft | 446 kts | 109° |
| 2026-04-25 07:36 | -39.52162 | 166.39993 | 39395 ft | 446 kts | 109° |
| 2026-04-25 07:36 | -39.54130 | 166.47616 | 39398 ft | 446 kts | 109° |
| 2026-04-25 07:37 | -39.56097 | 166.55260 | 39396 ft | 447 kts | 109° |
| 2026-04-25 07:37 | -39.58044 | 166.62852 | 39405 ft | 447 kts | 109° |
| 2026-04-25 07:38 | -39.59999 | 166.70497 | 39406 ft | 447 kts | 109° |
| 2026-04-25 07:38 | -39.61956 | 166.78163 | 39388 ft | 447 kts | 109° |
| 2026-04-25 07:39 | -39.63906 | 166.85832 | 39382 ft | 448 kts | 109° |
| 2026-04-25 07:39 | -39.65839 | 166.93461 | 39390 ft | 448 kts | 109° |
| 2026-04-25 07:40 | -39.67780 | 167.01145 | 39390 ft | 448 kts | 109° |
| 2026-04-25 07:40 | -39.69717 | 167.08839 | 39384 ft | 448 kts | 109° |
| 2026-04-25 07:41 | -39.71651 | 167.16543 | 39395 ft | 448 kts | 109° |
| 2026-04-25 07:41 | -39.73569 | 167.24210 | 39395 ft | 449 kts | 109° |
| 2026-04-25 07:42 | -39.75495 | 167.31930 | 39380 ft | 449 kts | 109° |
| 2026-04-25 07:42 | -39.77413 | 167.39649 | 39390 ft | 449 kts | 109° |
| 2026-04-25 07:43 | -39.79330 | 167.47379 | 39381 ft | 449 kts | 109° |
| 2026-04-25 07:43 | -39.81229 | 167.55062 | 39381 ft | 449 kts | 109° |
| 2026-04-25 07:44 | -39.83131 | 167.62795 | 39383 ft | 449 kts | 109° |
| 2026-04-25 07:44 | -39.85033 | 167.70542 | 39378 ft | 449 kts | 109° |
| 2026-04-25 07:45 | -39.86915 | 167.78242 | 39375 ft | 449 kts | 109° |
| 2026-04-25 07:45 | -39.88810 | 167.86009 | 39375 ft | 449 kts | 109° |
| 2026-04-25 07:46 | -39.90696 | 167.93774 | 39379 ft | 449 kts | 109° |
| 2026-04-25 07:46 | -39.92567 | 168.01492 | 39369 ft | 450 kts | 109° |
| 2026-04-25 07:47 | -39.94444 | 168.09274 | 39373 ft | 450 kts | 109° |
| 2026-04-25 07:47 | -39.96316 | 168.17054 | 39374 ft | 450 kts | 109° |
| 2026-04-25 07:48 | -39.98185 | 168.24848 | 39369 ft | 450 kts | 109° |
| 2026-04-25 07:48 | -40.00036 | 168.32589 | 39369 ft | 450 kts | 109° |
| 2026-04-25 07:49 | -40.01895 | 168.40391 | 39362 ft | 450 kts | 109° |
| 2026-04-25 07:49 | -40.03747 | 168.48196 | 39364 ft | 450 kts | 109° |
| 2026-04-25 07:50 | -40.05597 | 168.56014 | 39362 ft | 450 kts | 109° |
| 2026-04-25 07:50 | -40.07432 | 168.63792 | 39364 ft | 451 kts | 109° |
| 2026-04-25 07:51 | -40.09275 | 168.71634 | 39364 ft | 451 kts | 109° |
| 2026-04-25 07:51 | -40.11106 | 168.79458 | 39358 ft | 451 kts | 109° |
| 2026-04-25 07:52 | -40.12923 | 168.87240 | 39357 ft | 451 kts | 109° |
| 2026-04-25 07:52 | -40.14747 | 168.95089 | 39357 ft | 451 kts | 109° |
| 2026-04-25 07:53 | -40.16569 | 169.02939 | 39349 ft | 451 kts | 109° |
| 2026-04-25 07:53 | -40.18383 | 169.10788 | 39346 ft | 451 kts | 109° |
| 2026-04-25 07:54 | -40.20178 | 169.18591 | 39347 ft | 451 kts | 109° |
| 2026-04-25 07:54 | -40.21987 | 169.26460 | 39344 ft | 451 kts | 109° |
| 2026-04-25 07:55 | -40.23790 | 169.34344 | 39348 ft | 451 kts | 109° |
| 2026-04-25 07:55 | -40.25582 | 169.42220 | 39346 ft | 451 kts | 109° |
| 2026-04-25 07:56 | -40.27360 | 169.50047 | 39343 ft | 451 kts | 109° |
| 2026-04-25 07:56 | -40.29143 | 169.57932 | 39335 ft | 452 kts | 108° |
| 2026-04-25 07:57 | -40.30924 | 169.65836 | 39333 ft | 451 kts | 109° |
| 2026-04-25 07:57 | -40.32688 | 169.73680 | 39332 ft | 451 kts | 109° |
| 2026-04-25 07:58 | -40.34456 | 169.81577 | 39333 ft | 451 kts | 108° |
| 2026-04-25 07:58 | -40.36217 | 169.89476 | 39330 ft | 451 kts | 108° |
| 2026-04-25 07:59 | -40.37962 | 169.97334 | 39326 ft | 451 kts | 108° |
| 2026-04-25 07:59 | -40.39714 | 170.05238 | 39325 ft | 451 kts | 108° |
| 2026-04-25 08:00 | -40.41462 | 170.13155 | 39317 ft | 451 kts | 108° |
| 2026-04-25 08:00 | -40.43204 | 170.21072 | 39322 ft | 451 kts | 108° |
| 2026-04-25 08:01 | -40.44931 | 170.28949 | 39317 ft | 452 kts | 108° |
| 2026-04-25 08:01 | -40.46669 | 170.36887 | 39313 ft | 452 kts | 108° |
| 2026-04-25 08:02 | -40.48403 | 170.44831 | 39311 ft | 452 kts | 108° |
| 2026-04-25 08:02 | -40.50117 | 170.52708 | 39310 ft | 452 kts | 108° |
| 2026-04-25 08:03 | -40.51922 | 170.60621 | 39308 ft | 451 kts | 111° |
| 2026-04-25 08:03 | -40.53959 | 170.68416 | 39309 ft | 451 kts | 111° |
| 2026-04-25 08:04 | -40.55989 | 170.76220 | 39308 ft | 451 kts | 111° |
| 2026-04-25 08:04 | -40.57976 | 170.83986 | 39303 ft | 451 kts | 110° |
| 2026-04-25 08:05 | -40.59437 | 170.92027 | 39294 ft | 453 kts | 105° |
| 2026-04-25 08:05 | -40.60908 | 171.00074 | 39293 ft | 452 kts | 108° |
| 2026-04-25 08:06 | -40.62725 | 171.07985 | 39292 ft | 451 kts | 110° |
| 2026-04-25 08:06 | -40.64704 | 171.15772 | 39289 ft | 451 kts | 111° |
| 2026-04-25 08:07 | -40.66713 | 171.23618 | 39289 ft | 452 kts | 111° |
| 2026-04-25 08:07 | -40.68697 | 171.31411 | 39291 ft | 452 kts | 111° |
| 2026-04-25 08:08 | -40.70691 | 171.39271 | 39288 ft | 452 kts | 111° |
| 2026-04-25 08:08 | -40.72677 | 171.47139 | 39284 ft | 452 kts | 111° |
| 2026-04-25 08:09 | -40.74657 | 171.55006 | 39283 ft | 452 kts | 110° |
| 2026-04-25 08:09 | -40.76634 | 171.62878 | 39277 ft | 452 kts | 110° |
| 2026-04-25 08:10 | -40.78595 | 171.70717 | 39279 ft | 453 kts | 110° |
| 2026-04-25 08:10 | -40.80563 | 171.78608 | 39280 ft | 453 kts | 110° |
| 2026-04-25 08:11 | -40.82528 | 171.86514 | 39286 ft | 453 kts | 110° |
| 2026-04-25 08:11 | -40.84473 | 171.94369 | 39274 ft | 453 kts | 110° |
| 2026-04-25 08:12 | -40.86427 | 172.02287 | 39270 ft | 453 kts | 110° |
| 2026-04-25 08:12 | -40.88046 | 172.08866 | 39273 ft | 453 kts | 110° |
| 2026-04-25 08:13 | -40.89980 | 172.16756 | 39046 ft | 444 kts | 110° |
| 2026-04-25 08:13 | -40.91222 | 172.21842 | 38689 ft | 435 kts | 110° |
| 2026-04-25 08:14 | -40.92775 | 172.28198 | 38229 ft | 441 kts | 110° |
| 2026-04-25 08:14 | -40.93723 | 172.32085 | 37959 ft | 443 kts | 110° |
| 2026-04-25 08:14 | -40.94666 | 172.35966 | 37685 ft | 443 kts | 110° |
| 2026-04-25 08:14 | -40.95911 | 172.41101 | 37301 ft | 443 kts | 110° |
| 2026-04-25 08:15 | -40.96544 | 172.43712 | 36891 ft | 446 kts | 110° |
| 2026-04-25 08:15 | -40.97804 | 172.48923 | 35841 ft | 452 kts | 110° |
| 2026-04-25 08:15 | -40.98437 | 172.51547 | 35390 ft | 452 kts | 110° |
| 2026-04-25 08:15 | -40.99396 | 172.55528 | 34633 ft | 454 kts | 110° |
| 2026-04-25 08:16 | -41.00354 | 172.59513 | 33774 ft | 456 kts | 110° |
| 2026-04-25 08:16 | -41.01313 | 172.63508 | 33071 ft | 455 kts | 110° |
| 2026-04-25 08:16 | -41.02271 | 172.67505 | 32282 ft | 456 kts | 110° |
| 2026-04-25 08:16 | -41.03230 | 172.71514 | 31506 ft | 457 kts | 110° |
| 2026-04-25 08:17 | -41.04184 | 172.75509 | 30976 ft | 452 kts | 110° |
| 2026-04-25 08:17 | -41.05126 | 172.79459 | 30400 ft | 448 kts | 110° |
| 2026-04-25 08:17 | -41.06060 | 172.83379 | 29782 ft | 444 kts | 110° |
| 2026-04-25 08:17 | -41.06970 | 172.87207 | 29215 ft | 439 kts | 109° |
| 2026-04-25 08:18 | -41.07881 | 172.91040 | 28650 ft | 434 kts | 109° |
| 2026-04-25 08:18 | -41.08783 | 172.94842 | 28094 ft | 429 kts | 109° |
| 2026-04-25 08:18 | -41.09674 | 172.98605 | 27541 ft | 425 kts | 109° |
| 2026-04-25 08:18 | -41.10555 | 173.02331 | 26990 ft | 422 kts | 109° |
| 2026-04-25 08:19 | -41.11428 | 173.06030 | 26437 ft | 418 kts | 109° |
| 2026-04-25 08:19 | -41.12291 | 173.09694 | 25893 ft | 415 kts | 109° |
| 2026-04-25 08:19 | -41.13139 | 173.13299 | 25355 ft | 413 kts | 109° |
| 2026-04-25 08:19 | -41.13990 | 173.16923 | 24786 ft | 412 kts | 109° |
| 2026-04-25 08:20 | -41.14837 | 173.20533 | 24252 ft | 409 kts | 108° |
| 2026-04-25 08:20 | -41.15677 | 173.24123 | 23660 ft | 408 kts | 108° |
| 2026-04-25 08:20 | -41.16515 | 173.27709 | 23131 ft | 403 kts | 108° |
| 2026-04-25 08:20 | -41.17339 | 173.31247 | 22598 ft | 399 kts | 108° |
| 2026-04-25 08:21 | -41.18146 | 173.34711 | 22065 ft | 395 kts | 108° |
| 2026-04-25 08:21 | -41.18960 | 173.38215 | 21531 ft | 392 kts | 108° |
| 2026-04-25 08:21 | -41.19758 | 173.41656 | 21001 ft | 389 kts | 108° |
| 2026-04-25 08:21 | -41.20541 | 173.45033 | 20480 ft | 386 kts | 108° |
| 2026-04-25 08:22 | -41.21327 | 173.48428 | 19958 ft | 383 kts | 108° |
| 2026-04-25 08:22 | -41.22107 | 173.51804 | 19429 ft | 381 kts | 108° |
| 2026-04-25 08:22 | -41.22883 | 173.55167 | 18899 ft | 379 kts | 108° |
| 2026-04-25 08:22 | -41.23902 | 173.59591 | 18176 ft | 376 kts | 108° |
| 2026-04-25 08:23 | -41.24416 | 173.61827 | 17821 ft | 374 kts | 108° |
| 2026-04-25 08:23 | -41.25162 | 173.65077 | 17290 ft | 371 kts | 108° |
| 2026-04-25 08:23 | -41.25929 | 173.68422 | 16478 ft | 376 kts | 108° |
| 2026-04-25 08:23 | -41.26676 | 173.71683 | 16000 ft | 372 kts | 108° |
| 2026-04-25 08:24 | -41.27435 | 173.75002 | 15474 ft | 369 kts | 108° |
| 2026-04-25 08:24 | -41.28166 | 173.78206 | 14971 ft | 366 kts | 108° |
| 2026-04-25 08:24 | -41.28902 | 173.81438 | 14460 ft | 364 kts | 108° |
| 2026-04-25 08:24 | -41.29633 | 173.84650 | 13931 ft | 362 kts | 108° |
| 2026-04-25 08:25 | -41.30357 | 173.87828 | 13419 ft | 358 kts | 108° |
| 2026-04-25 08:25 | -41.30847 | 173.91064 | 12915 ft | 356 kts | 92° |
| 2026-04-25 08:25 | -41.30475 | 173.94305 | 12440 ft | 356 kts | 71° |
| 2026-04-25 08:25 | -41.29257 | 173.97151 | 11965 ft | 356 kts | 50° |
| 2026-04-25 08:26 | -41.27492 | 173.99437 | 11507 ft | 353 kts | 43° |
| 2026-04-25 08:26 | -41.25707 | 174.01602 | 11047 ft | 350 kts | 43° |
| 2026-04-25 08:26 | -41.23913 | 174.03763 | 10589 ft | 347 kts | 43° |
| 2026-04-25 08:26 | -41.22131 | 174.05896 | 10146 ft | 343 kts | 43° |
| 2026-04-25 08:27 | -41.20359 | 174.08007 | 9641 ft | 340 kts | 43° |
| 2026-04-25 08:27 | -41.18600 | 174.10097 | 9150 ft | 338 kts | 44° |
| 2026-04-25 08:27 | -41.17194 | 174.12536 | 8668 ft | 331 kts | 66° |
| 2026-04-25 08:27 | -41.16612 | 174.15421 | 8235 ft | 321 kts | 90° |
| 2026-04-25 08:28 | -41.16948 | 174.18255 | 8055 ft | 304 kts | 114° |
| 2026-04-25 08:28 | -41.18118 | 174.20575 | 8008 ft | 305 kts | 138° |
| 2026-04-25 08:28 | -41.19876 | 174.22017 | 8004 ft | 302 kts | 161° |
| 2026-04-25 08:28 | -41.21870 | 174.22883 | 7994 ft | 301 kts | 163° |
| 2026-04-25 08:29 | -41.23867 | 174.23724 | 7997 ft | 301 kts | 163° |
| 2026-04-25 08:29 | -41.25862 | 174.24566 | 7992 ft | 301 kts | 163° |
| 2026-04-25 08:29 | -41.27858 | 174.25408 | 8003 ft | 301 kts | 163° |
| 2026-04-25 08:29 | -41.29853 | 174.26249 | 7992 ft | 300 kts | 163° |
| 2026-04-25 08:30 | -41.31810 | 174.27075 | 7908 ft | 295 kts | 163° |
| 2026-04-25 08:30 | -41.33734 | 174.27888 | 7818 ft | 284 kts | 163° |
| 2026-04-25 08:30 | -41.35574 | 174.28667 | 7715 ft | 271 kts | 163° |
| 2026-04-25 08:30 | -41.37298 | 174.29543 | 7532 ft | 262 kts | 149° |
| 2026-04-25 08:31 | -41.38542 | 174.31230 | 7405 ft | 255 kts | 122° |
| 2026-04-25 08:31 | -41.39186 | 174.33380 | 7310 ft | 245 kts | 110° |
| 2026-04-25 08:31 | -41.39676 | 174.35490 | 7121 ft | 239 kts | 112° |
| 2026-04-25 08:31 | -41.40247 | 174.37550 | 6803 ft | 235 kts | 116° |
| 2026-04-25 08:32 | -41.40917 | 174.39538 | 6424 ft | 234 kts | 119° |
| 2026-04-25 08:32 | -41.41651 | 174.41465 | 6037 ft | 232 kts | 121° |
| 2026-04-25 08:32 | -41.42413 | 174.43354 | 5704 ft | 229 kts | 122° |
| 2026-04-25 08:32 | -41.43170 | 174.45194 | 5573 ft | 232 kts | 122° |
| 2026-04-25 08:33 | -41.43946 | 174.47071 | 5445 ft | 230 kts | 122° |
| 2026-04-25 08:33 | -41.44720 | 174.48952 | 5169 ft | 232 kts | 122° |
| 2026-04-25 08:33 | -41.45490 | 174.50830 | 4835 ft | 229 kts | 122° |
| 2026-04-25 08:33 | -41.46238 | 174.52655 | 4682 ft | 218 kts | 122° |
| 2026-04-25 08:34 | -41.46933 | 174.54391 | 4581 ft | 206 kts | 123° |
| 2026-04-25 08:34 | -41.47640 | 174.55990 | 4504 ft | 192 kts | 128° |
| 2026-04-25 08:34 | -41.48317 | 174.57458 | 4391 ft | 195 kts | 123° |
| 2026-04-25 08:34 | -41.48930 | 174.59091 | 4231 ft | 198 kts | 113° |
| 2026-04-25 08:35 | -41.49201 | 174.60895 | 4003 ft | 200 kts | 97° |
| 2026-04-25 08:35 | -41.49213 | 174.62752 | 3763 ft | 200 kts | 95° |
| 2026-04-25 08:35 | -41.49260 | 174.64604 | 3524 ft | 200 kts | 96° |
| 2026-04-25 08:35 | -41.49330 | 174.66435 | 3272 ft | 197 kts | 96° |
| 2026-04-25 08:36 | -41.49405 | 174.68259 | 3056 ft | 197 kts | 96° |
| 2026-04-25 08:36 | -41.49480 | 174.70068 | 2999 ft | 195 kts | 96° |
| 2026-04-25 08:36 | -41.49556 | 174.71900 | 3001 ft | 199 kts | 96° |
| 2026-04-25 08:36 | -41.49629 | 174.73724 | 2993 ft | 196 kts | 96° |
| 2026-04-25 08:37 | -41.49698 | 174.75525 | 2920 ft | 190 kts | 96° |
| 2026-04-25 08:37 | -41.49748 | 174.77225 | 2790 ft | 180 kts | 90° |
| 2026-04-25 08:37 | -41.49349 | 174.78764 | 2501 ft | 182 kts | 53° |
| 2026-04-25 08:37 | -41.48303 | 174.79658 | 2194 ft | 180 kts | 10° |
| 2026-04-25 08:38 | -41.47080 | 174.79796 | 2014 ft | 170 kts | 0° |
| 2026-04-25 08:38 | -41.45882 | 174.79851 | 1999 ft | 177 kts | 360° |
| 2026-04-25 08:38 | -41.44661 | 174.79905 | 1997 ft | 175 kts | 0° |
| 2026-04-25 08:38 | -41.43452 | 174.79969 | 2014 ft | 172 kts | 0° |
| 2026-04-25 08:39 | -41.42263 | 174.80041 | 1976 ft | 175 kts | 1° |
| 2026-04-25 08:39 | -41.41055 | 174.80119 | 1766 ft | 171 kts | 1° |
| 2026-04-25 08:39 | -41.39889 | 174.80197 | 1536 ft | 166 kts | 1° |
| 2026-04-25 08:39 | -41.38731 | 174.80276 | 1312 ft | 166 kts | 1° |
| 2026-04-25 08:40 | -41.37590 | 174.80351 | 1077 ft | 163 kts | 2° |
| 2026-04-25 08:40 | -41.36476 | 174.80422 | 836 ft | 151 kts | 2° |
| 2026-04-25 08:40 | -41.35495 | 174.80490 | 552 ft | 137 kts | 3° |
| 2026-04-25 08:40 | -41.34584 | 174.80550 | 328 ft | 126 kts | 4° |
| 2026-04-25 08:41 | -41.33739 | 174.80614 | 114 ft | 118 kts | 4° |
| 2026-04-25 08:41 | -41.32934 | 174.80686 | 27 ft | 107 kts | 359° |
| 2026-04-25 08:41 | -41.32398 | 174.80711 | 35 ft | 51 kts | 2° |
| 2026-04-25 08:41 | -41.32176 | 174.80747 | 43 ft | 16 kts | 66° |
| 2026-04-25 08:42 | -41.32206 | 174.80840 | 42 ft | 10 kts | 187° |
| 2026-04-25 08:42 | -41.32292 | 174.80843 | 38 ft | 16 kts | 184° |
| 2026-04-25 08:42 | -41.32419 | 174.80835 | 34 ft | 21 kts | 182° |
| 2026-04-25 08:42 | -41.32588 | 174.80825 | 28 ft | 27 kts | 184° |
| 2026-04-25 08:43 | -41.32710 | 174.80837 | 26 ft | 13 kts | 129° |
| 2026-04-25 08:43 | -41.32700 | 174.80940 | 29 ft | 10 kts | 85° |
| 2026-04-25 08:43 | -41.32704 | 174.81014 | 30 ft | 6 kts | 110° |
| 2026-04-25 08:43 | -41.32722 | 174.81022 | 29 ft | 1 kts | 169° |
| 2026-04-25 08:44 | -41.32738 | 174.81021 | 28 ft | 4 kts | 183° |
| 2026-04-25 08:44 | -41.32753 | 174.81019 | 28 ft | 1 kts | 184° |
| 2026-04-25 08:44 | -41.32758 | 174.81019 | 26 ft | 0 kts | 185° |
| 2026-04-25 08:44 | -41.32759 | 174.81019 | 26 ft | 0 kts | 185° |